createdAt,value
2022-10-07T00:01:58.617Z,11.60
2022-10-07T00:04:25.455Z,11.50
2022-10-07T00:06:52.178Z,11.50
2022-10-07T00:09:20.340Z,11.50
2022-10-07T00:11:47.154Z,11.50
2022-10-07T00:14:13.894Z,11.50
2022-10-07T00:16:41.487Z,11.50
2022-10-07T00:19:10.719Z,13.10
2022-10-07T00:21:38.186Z,12.10
2022-10-07T00:24:05.675Z,11.60
2022-10-07T00:26:33.087Z,11.60
2022-10-07T00:28:59.899Z,11.60
2022-10-07T00:31:31.104Z,11.70
2022-10-07T00:33:58.451Z,11.70
2022-10-07T00:36:26.754Z,11.70
2022-10-07T00:38:56.220Z,11.60
2022-10-07T00:41:33.805Z,11.70
2022-10-07T00:44:01.014Z,11.60
2022-10-07T00:46:30.970Z,11.70
2022-10-07T00:48:59.467Z,11.70
2022-10-07T00:51:26.220Z,11.70
2022-10-07T00:53:53.870Z,11.70
2022-10-07T00:56:21.207Z,12.20
2022-10-07T00:58:48.150Z,11.60
2022-10-07T01:01:15.359Z,11.60
2022-10-07T01:03:42.636Z,11.70
2022-10-07T01:06:10.356Z,10.30
2022-10-07T01:08:37.055Z,11.60
2022-10-07T01:11:14.319Z,11.50
2022-10-07T01:13:46.542Z,11.50
2022-10-07T01:16:16.827Z,11.50
2022-10-07T01:18:52.817Z,11.50
2022-10-07T01:21:31.468Z,11.40
2022-10-07T01:24:09.614Z,11.40
2022-10-07T01:26:41.680Z,11.40
2022-10-07T01:29:18.766Z,13.50
2022-10-07T01:31:47.897Z,11.40
2022-10-07T01:34:15.004Z,11.40
2022-10-07T01:36:42.869Z,11.30
2022-10-07T01:39:12.171Z,11.40
2022-10-07T01:41:39.663Z,11.40
2022-10-07T01:44:06.982Z,11.40
2022-10-07T01:46:37.764Z,11.40
2022-10-07T01:49:05.580Z,11.50
2022-10-07T01:51:35.203Z,13.70
2022-10-07T01:54:08.479Z,11.50
2022-10-07T01:57:01.484Z,11.50
2022-10-07T01:59:36.946Z,11.50
2022-10-07T02:02:14.429Z,11.50
2022-10-07T02:04:50.337Z,11.50
2022-10-07T02:07:22.937Z,11.50
2022-10-07T02:09:55.806Z,11.50
2022-10-07T02:12:40.784Z,11.50
2022-10-07T02:15:11.125Z,11.50
2022-10-07T02:17:42.609Z,11.50
2022-10-07T02:20:11.333Z,12.60
2022-10-07T02:22:38.700Z,11.50
2022-10-07T02:25:05.944Z,11.60
2022-10-07T02:27:34.966Z,11.60
2022-10-07T02:30:04.602Z,11.50
2022-10-07T02:32:31.940Z,12.20
2022-10-07T02:35:00.788Z,13.60
2022-10-07T02:37:28.777Z,12.00
2022-10-07T02:39:56.087Z,11.50
2022-10-07T02:42:25.277Z,12.30
2022-10-07T02:44:56.554Z,11.40
2022-10-07T02:47:34.364Z,11.40
2022-10-07T02:50:03.496Z,11.30
2022-10-07T02:52:31.341Z,12.50
2022-10-07T02:55:04.375Z,11.30
2022-10-07T02:57:33.630Z,11.30
2022-10-07T03:00:01.291Z,11.30
2022-10-07T03:02:32.017Z,11.40
2022-10-07T03:04:58.957Z,11.50
2022-10-07T03:07:26.069Z,12.30
2022-10-07T03:09:53.082Z,11.30
2022-10-07T03:12:19.725Z,11.40
2022-10-07T03:14:48.833Z,11.30
2022-10-07T03:17:16.389Z,12.20
2022-10-07T03:19:43.376Z,11.30
2022-10-07T03:22:09.900Z,11.40
2022-10-07T03:24:36.489Z,11.40
2022-10-07T03:27:05.561Z,12.90
2022-10-07T03:29:32.970Z,11.40
2022-10-07T03:31:59.539Z,11.40
2022-10-07T03:34:27.289Z,11.40
2022-10-07T03:36:54.336Z,11.40
2022-10-07T03:39:20.935Z,11.50
2022-10-07T03:41:50.028Z,11.40
2022-10-07T03:44:17.259Z,11.40
2022-10-07T03:46:43.933Z,11.40
2022-10-07T03:49:11.231Z,11.40
2022-10-07T03:51:37.884Z,11.50
2022-10-07T03:54:04.540Z,11.50
2022-10-07T03:56:31.110Z,11.50
2022-10-07T03:58:57.833Z,11.50
2022-10-07T04:01:24.485Z,11.60
2022-10-07T04:03:51.450Z,11.70
2022-10-07T04:06:18.027Z,12.90
2022-10-07T04:08:44.923Z,13.90
2022-10-07T04:11:11.617Z,12.80
2022-10-07T04:13:38.171Z,12.00
2022-10-07T04:16:08.633Z,11.80
2022-10-07T04:18:35.740Z,11.90
2022-10-07T04:21:02.590Z,11.90
2022-10-07T04:23:29.291Z,11.90
2022-10-07T04:25:56.068Z,11.80
2022-10-07T04:28:24.191Z,12.50
2022-10-07T04:30:54.025Z,11.90
2022-10-07T04:33:21.625Z,11.70
2022-10-07T04:35:50.212Z,11.70
2022-10-07T04:38:18.183Z,11.70
2022-10-07T04:40:46.378Z,11.60
2022-10-07T04:43:19.773Z,11.60
2022-10-07T04:45:47.040Z,11.80
2022-10-07T04:48:13.737Z,11.70
2022-10-07T04:50:40.372Z,11.50
2022-10-07T04:53:08.159Z,11.40
2022-10-07T04:55:35.867Z,11.40
2022-10-07T04:58:02.447Z,11.30
2022-10-07T05:00:29.184Z,11.20
2022-10-07T05:02:55.860Z,11.10
2022-10-07T05:05:22.604Z,11.00
2022-10-07T05:07:50.601Z,13.00
2022-10-07T05:10:17.798Z,11.60
2022-10-07T05:12:44.347Z,11.00
2022-10-07T05:15:11.402Z,10.90
2022-10-07T05:17:40.388Z,10.80
2022-10-07T05:20:07.880Z,10.80
2022-10-07T05:22:34.593Z,10.80
2022-10-07T05:25:01.326Z,10.90
2022-10-07T05:27:27.889Z,10.80
2022-10-07T05:29:54.453Z,12.30
2022-10-07T05:32:21.237Z,11.40
2022-10-07T05:34:47.827Z,10.90
2022-10-07T05:37:15.191Z,11.00
2022-10-07T05:39:41.931Z,12.30
2022-10-07T05:42:09.426Z,11.00
2022-10-07T05:44:37.733Z,11.90
2022-10-07T05:47:04.619Z,11.90
2022-10-07T05:49:31.359Z,11.20
2022-10-07T05:51:58.018Z,11.30
2022-10-07T05:54:24.737Z,11.40
2022-10-07T05:56:51.359Z,13.20
2022-10-07T05:59:17.982Z,11.50
2022-10-07T06:01:44.621Z,11.70
2022-10-07T06:04:11.340Z,12.70
2022-10-07T06:06:38.586Z,11.80
2022-10-07T06:09:23.728Z,14.00
2022-10-07T06:12:08.935Z,12.90
2022-10-07T06:14:35.517Z,12.50
2022-10-07T06:17:02.147Z,12.10
2022-10-07T06:19:28.849Z,12.10
2022-10-07T06:21:55.444Z,12.60
2022-10-07T06:24:22.070Z,12.20
2022-10-07T06:26:48.900Z,12.20
2022-10-07T06:29:15.465Z,13.40
2022-10-07T06:31:42.148Z,12.30
2022-10-07T06:34:08.807Z,11.20
2022-10-07T06:36:35.489Z,12.40
2022-10-07T06:39:02.158Z,12.50
2022-10-07T06:41:28.789Z,12.60
2022-10-07T06:43:57.282Z,12.70
2022-10-07T06:46:23.937Z,12.80
2022-10-07T06:48:51.254Z,12.80
2022-10-07T06:51:19.692Z,13.00
2022-10-07T06:53:46.881Z,13.00
2022-10-07T06:56:14.314Z,13.10
2022-10-07T06:58:41.141Z,13.10
2022-10-07T07:01:07.898Z,13.20
2022-10-07T07:03:35.331Z,13.20
2022-10-07T07:06:02.473Z,13.20
2022-10-07T07:08:31.739Z,13.20
2022-10-07T07:11:28.790Z,13.20
2022-10-07T07:13:55.759Z,13.20
2022-10-07T07:16:24.274Z,12.70
2022-10-07T07:19:05.333Z,13.30
2022-10-07T07:21:33.745Z,13.30
2022-10-07T07:24:00.423Z,13.40
2022-10-07T07:26:30.119Z,13.40
2022-10-07T07:28:59.195Z,13.40
2022-10-07T07:31:27.114Z,13.50
2022-10-07T07:33:53.804Z,13.50
2022-10-07T07:36:23.064Z,13.60
2022-10-07T07:38:51.645Z,13.60
2022-10-07T07:41:19.537Z,13.80
2022-10-07T07:43:52.668Z,13.80
2022-10-07T07:46:20.500Z,13.90
2022-10-07T07:48:48.825Z,13.90
2022-10-07T07:51:17.230Z,14.00
2022-10-07T07:53:43.978Z,14.00
2022-10-07T07:56:11.802Z,14.00
2022-10-07T07:58:39.042Z,14.00
2022-10-07T08:01:07.564Z,14.10
2022-10-07T08:03:37.256Z,14.20
2022-10-07T08:06:05.128Z,14.20
2022-10-07T08:08:31.848Z,14.30
2022-10-07T08:11:06.216Z,14.30
2022-10-07T08:13:33.148Z,14.40
2022-10-07T08:15:59.963Z,14.50
2022-10-07T08:18:27.055Z,14.50
2022-10-07T08:20:58.276Z,14.60
2022-10-07T08:23:26.639Z,14.70
2022-10-07T08:25:54.224Z,14.70
2022-10-07T08:28:20.893Z,14.80
2022-10-07T08:30:47.579Z,14.80
2022-10-07T08:33:14.285Z,14.90
2022-10-07T08:35:40.905Z,15.00
2022-10-07T08:38:10.448Z,15.00
2022-10-07T08:40:45.859Z,15.10
2022-10-07T08:43:12.934Z,15.10
2022-10-07T08:45:39.622Z,15.20
2022-10-07T08:48:11.384Z,15.20
2022-10-07T08:50:51.754Z,15.20
2022-10-07T08:53:21.120Z,15.40
2022-10-07T08:55:51.585Z,15.50
2022-10-07T08:58:30.962Z,15.50
2022-10-07T09:01:16.110Z,15.60
2022-10-07T09:03:47.372Z,15.30
2022-10-07T09:06:16.566Z,17.50
2022-10-07T09:08:48.580Z,15.90
2022-10-07T09:11:20.453Z,15.90
2022-10-07T09:13:50.618Z,16.00
2022-10-07T09:16:22.956Z,16.00
2022-10-07T09:19:11.587Z,16.10
2022-10-07T09:21:50.644Z,16.20
2022-10-07T09:24:21.597Z,16.30
2022-10-07T09:26:48.492Z,16.30
2022-10-07T09:29:17.777Z,16.40
2022-10-07T09:31:44.429Z,16.40
2022-10-07T09:34:25.114Z,16.40
2022-10-07T09:37:10.906Z,16.50
2022-10-07T09:39:37.818Z,16.60
2022-10-07T09:42:06.771Z,16.70
2022-10-07T09:44:33.551Z,16.80
2022-10-07T09:47:11.984Z,16.90
2022-10-07T09:49:41.047Z,17.00
2022-10-07T09:52:07.888Z,17.00
2022-10-07T09:54:35.803Z,17.00
2022-10-07T09:57:03.581Z,17.10
2022-10-07T09:59:33.384Z,17.20
2022-10-07T10:02:00.043Z,17.20
2022-10-07T10:04:34.410Z,17.20
2022-10-07T10:07:03.479Z,17.20
2022-10-07T10:09:30.729Z,17.30
2022-10-07T10:12:13.251Z,17.30
2022-10-07T10:14:45.553Z,17.30
2022-10-07T10:17:24.570Z,17.20
2022-10-07T10:19:51.387Z,17.20
2022-10-07T10:22:26.109Z,17.10
2022-10-07T10:25:11.915Z,17.10
2022-10-07T10:28:01.225Z,17.00
2022-10-07T10:30:28.296Z,17.10
2022-10-07T10:32:58.036Z,17.20
2022-10-07T10:35:25.772Z,17.30
2022-10-07T10:38:01.503Z,17.30
2022-10-07T10:40:28.137Z,17.30
2022-10-07T10:43:05.297Z,17.40
2022-10-07T10:45:37.682Z,17.40
2022-10-07T10:48:11.319Z,17.40
2022-10-07T10:50:38.205Z,17.50
2022-10-07T10:53:04.873Z,17.60
2022-10-07T10:55:38.539Z,17.60
2022-10-07T10:58:11.257Z,17.60
2022-10-07T11:00:44.683Z,17.70
2022-10-07T11:03:31.036Z,17.60
2022-10-07T11:05:57.683Z,17.70
2022-10-07T11:08:37.667Z,17.70
2022-10-07T11:11:06.595Z,17.70
2022-10-07T11:13:52.844Z,17.70
2022-10-07T11:16:23.377Z,17.80
2022-10-07T11:19:02.247Z,17.70
2022-10-07T11:21:31.841Z,17.80
2022-10-07T11:24:02.276Z,17.80
2022-10-07T11:26:37.566Z,17.90
2022-10-07T11:29:10.275Z,17.90
2022-10-07T11:31:39.775Z,17.80
2022-10-07T11:34:34.976Z,17.80
2022-10-07T11:37:08.579Z,17.60
2022-10-07T11:39:38.785Z,17.60
2022-10-07T11:42:17.479Z,17.60
2022-10-07T11:44:47.420Z,17.60
2022-10-07T11:47:16.700Z,17.60
2022-10-07T11:50:07.792Z,17.60
2022-10-07T11:52:38.845Z,17.60
2022-10-07T11:55:07.801Z,17.70
2022-10-07T11:57:35.989Z,17.60
2022-10-07T12:00:06.175Z,17.70
2022-10-07T12:02:38.279Z,17.70
2022-10-07T12:05:05.363Z,17.80
2022-10-07T12:07:32.251Z,17.80
2022-10-07T12:10:01.921Z,17.80
2022-10-07T12:12:44.810Z,17.70
2022-10-07T12:15:30.539Z,17.70
2022-10-07T12:18:06.265Z,17.70
2022-10-07T12:20:48.259Z,17.80
2022-10-07T12:23:22.241Z,17.80
2022-10-07T12:25:59.563Z,17.90
2022-10-07T12:28:31.889Z,17.90
2022-10-07T12:31:02.538Z,17.90
2022-10-07T12:33:40.331Z,17.90
2022-10-07T12:36:22.411Z,17.90
2022-10-07T12:39:12.166Z,17.80
2022-10-07T12:41:40.577Z,17.80
2022-10-07T12:44:07.393Z,17.80
2022-10-07T12:46:41.273Z,17.80
2022-10-07T12:49:14.141Z,17.80
2022-10-07T12:51:40.991Z,17.80
2022-10-07T12:54:12.970Z,17.90
2022-10-07T12:56:42.629Z,17.90
2022-10-07T12:59:31.160Z,17.90
2022-10-07T13:02:17.110Z,17.80
2022-10-07T13:04:58.030Z,17.80
2022-10-07T13:07:30.716Z,17.80
2022-10-07T13:10:17.689Z,17.80
2022-10-07T13:12:47.874Z,17.90
2022-10-07T13:15:17.726Z,17.80
2022-10-07T13:17:51.431Z,17.80
2022-10-07T13:20:18.092Z,17.80
2022-10-07T13:22:46.779Z,17.70
2022-10-07T13:25:14.742Z,17.70
2022-10-07T13:27:46.134Z,17.70
2022-10-07T13:30:31.865Z,17.70
2022-10-07T13:33:11.957Z,17.80
2022-10-07T13:35:39.853Z,17.70
2022-10-07T13:38:06.919Z,17.70
2022-10-07T13:40:36.536Z,17.70
2022-10-07T13:43:04.838Z,17.80
2022-10-07T13:45:33.340Z,17.80
2022-10-07T13:48:00.108Z,17.80
2022-10-07T13:50:30.811Z,17.80
2022-10-07T13:52:57.620Z,17.80
2022-10-07T13:55:34.175Z,17.80
2022-10-07T13:58:05.438Z,17.90
2022-10-07T14:00:40.388Z,17.90
2022-10-07T14:03:13.973Z,17.90
2022-10-07T14:05:48.805Z,17.90
2022-10-07T14:08:21.272Z,17.90
2022-10-07T14:11:11.167Z,17.90
2022-10-07T14:13:37.989Z,18.00
2022-10-07T14:16:04.748Z,18.00
2022-10-07T14:18:31.993Z,17.90
2022-10-07T14:21:09.783Z,18.00
2022-10-07T14:23:37.761Z,17.90
2022-10-07T14:26:06.004Z,17.90
2022-10-07T14:28:34.315Z,17.90
2022-10-07T14:31:26.131Z,17.90
2022-10-07T14:34:30.407Z,17.80
2022-10-07T14:37:01.443Z,17.80
2022-10-07T14:39:35.757Z,17.60
2022-10-07T14:42:02.890Z,17.70
2022-10-07T14:44:30.121Z,17.80
2022-10-07T14:47:09.027Z,17.70
2022-10-07T14:49:36.341Z,17.70
2022-10-07T14:52:04.173Z,17.60
2022-10-07T14:54:31.083Z,17.50
2022-10-07T14:56:57.733Z,17.50
2022-10-07T14:59:24.363Z,17.40
2022-10-07T15:01:50.985Z,17.30
2022-10-07T15:04:17.762Z,17.20
2022-10-07T15:06:49.999Z,15.60
2022-10-07T15:09:18.351Z,17.20
2022-10-07T15:11:45.006Z,17.10
2022-10-07T15:14:12.051Z,17.10
2022-10-07T15:16:38.904Z,17.10
2022-10-07T15:19:05.620Z,17.00
2022-10-07T15:21:32.273Z,17.10
2022-10-07T15:24:00.987Z,17.10
2022-10-07T15:26:27.943Z,17.00
2022-10-07T15:28:56.410Z,17.00
2022-10-07T15:31:24.222Z,18.40
2022-10-07T15:33:50.911Z,15.50
2022-10-07T15:36:18.043Z,16.90
2022-10-07T15:38:44.701Z,16.90
2022-10-07T15:41:22.983Z,16.90
2022-10-07T15:43:49.682Z,16.90
2022-10-07T15:46:16.337Z,16.80
2022-10-07T15:48:43.009Z,16.90
2022-10-07T15:51:09.673Z,16.80
2022-10-07T15:53:36.295Z,16.80
2022-10-07T15:56:02.965Z,16.80
2022-10-07T15:58:30.382Z,16.80
2022-10-07T16:00:57.263Z,16.80
2022-10-07T16:03:23.977Z,16.80
2022-10-07T16:05:57.625Z,16.80
2022-10-07T16:08:24.220Z,16.80
2022-10-07T16:10:50.865Z,16.80
2022-10-07T16:13:17.593Z,16.80
2022-10-07T16:15:44.565Z,16.80
2022-10-07T16:18:11.194Z,16.80
2022-10-07T16:20:39.016Z,16.80
2022-10-07T16:23:05.812Z,16.80
2022-10-07T16:25:34.973Z,16.80
2022-10-07T16:28:20.364Z,16.70
2022-10-07T16:30:51.197Z,16.60
2022-10-07T16:33:19.575Z,16.60
2022-10-07T16:35:46.285Z,16.50
2022-10-07T16:38:12.918Z,16.40
2022-10-07T16:40:39.535Z,16.30
2022-10-07T16:43:06.279Z,16.30
2022-10-07T16:45:32.888Z,16.20
2022-10-07T16:47:59.619Z,16.10
2022-10-07T16:50:26.244Z,16.10
2022-10-07T16:52:52.859Z,16.00
2022-10-07T16:55:19.487Z,15.90
2022-10-07T16:57:47.296Z,15.90
2022-10-07T17:00:14.656Z,15.70
2022-10-07T17:02:41.273Z,15.60
2022-10-07T17:05:09.624Z,15.60
2022-10-07T17:07:36.253Z,15.50
2022-10-07T17:10:03.213Z,15.50
2022-10-07T17:12:29.929Z,15.30
2022-10-07T17:14:56.647Z,15.20
2022-10-07T17:17:23.480Z,15.20
2022-10-07T17:19:51.116Z,15.20
2022-10-07T17:22:18.029Z,15.10
2022-10-07T17:24:44.840Z,15.00
2022-10-07T17:27:11.512Z,15.00
2022-10-07T17:29:38.478Z,14.90
2022-10-07T17:32:05.140Z,14.80
2022-10-07T17:34:34.251Z,14.60
2022-10-07T17:37:00.991Z,14.50
2022-10-07T17:39:27.677Z,14.40
2022-10-07T17:41:54.317Z,14.40
2022-10-07T17:44:21.503Z,14.40
2022-10-07T17:46:49.118Z,14.30
2022-10-07T17:49:15.948Z,14.20
2022-10-07T17:51:43.321Z,14.00
2022-10-07T17:54:11.101Z,13.90
2022-10-07T17:56:37.838Z,13.80
2022-10-07T17:59:05.429Z,13.70
2022-10-07T18:01:34.190Z,13.60
2022-10-07T18:04:01.883Z,13.50
2022-10-07T18:06:30.262Z,13.50
2022-10-07T18:08:59.103Z,13.60
2022-10-07T18:11:46.127Z,13.60
2022-10-07T18:14:31.200Z,11.70
2022-10-07T18:16:57.833Z,13.60
2022-10-07T18:19:24.929Z,13.40
2022-10-07T18:21:51.619Z,14.40
2022-10-07T18:24:18.673Z,13.30
2022-10-07T18:26:45.374Z,13.20
2022-10-07T18:29:12.030Z,13.10
2022-10-07T18:31:38.729Z,13.10
2022-10-07T18:34:05.565Z,13.10
2022-10-07T18:36:32.248Z,13.10
2022-10-07T18:38:58.879Z,13.00
2022-10-07T18:41:25.568Z,13.00
2022-10-07T18:43:55.254Z,13.00
2022-10-07T18:46:23.121Z,12.90
2022-10-07T18:48:49.858Z,13.00
2022-10-07T18:51:16.793Z,13.00
2022-10-07T18:53:44.686Z,14.10
2022-10-07T18:56:12.924Z,13.10
2022-10-07T18:58:40.909Z,12.90
2022-10-07T19:01:08.243Z,12.80
2022-10-07T19:03:35.038Z,12.70
2022-10-07T19:06:08.559Z,12.70
2022-10-07T19:08:35.231Z,12.60
2022-10-07T19:11:02.907Z,12.60
2022-10-07T19:13:48.040Z,12.60
2022-10-07T19:16:19.190Z,12.60
2022-10-07T19:18:46.498Z,12.60
2022-10-07T19:21:13.841Z,13.30
2022-10-07T19:23:41.796Z,12.70
2022-10-07T19:26:09.271Z,12.70
2022-10-07T19:28:37.055Z,12.70
2022-10-07T19:31:13.160Z,12.70
2022-10-07T19:33:40.076Z,12.80
2022-10-07T19:36:07.102Z,12.80
2022-10-07T19:38:33.804Z,12.90
2022-10-07T19:41:00.465Z,12.90
2022-10-07T19:43:27.671Z,13.00
2022-10-07T19:45:54.381Z,13.00
2022-10-07T19:48:21.814Z,13.00
2022-10-07T19:50:56.247Z,13.00
2022-10-07T19:53:23.006Z,11.40
2022-10-07T19:55:49.732Z,12.80
2022-10-07T19:58:16.652Z,12.70
2022-10-07T20:00:43.327Z,12.80
2022-10-07T20:03:09.983Z,12.70
2022-10-07T20:05:41.133Z,12.70
2022-10-07T20:08:10.168Z,12.70
2022-10-07T20:10:38.654Z,12.70
2022-10-07T20:13:05.308Z,12.70
2022-10-07T20:15:33.305Z,12.70
2022-10-07T20:18:03.763Z,12.70
2022-10-07T20:20:30.388Z,12.70
2022-10-07T20:22:57.164Z,12.70
2022-10-07T20:25:24.415Z,12.80
2022-10-07T20:27:51.065Z,12.80
2022-10-07T20:30:18.371Z,12.70
2022-10-07T20:32:45.515Z,12.70
2022-10-07T20:35:12.352Z,12.70
2022-10-07T20:37:38.978Z,12.60
2022-10-07T20:40:24.192Z,12.60
2022-10-07T20:42:51.975Z,12.70
2022-10-07T20:45:19.000Z,12.70
2022-10-07T20:47:46.181Z,12.70
2022-10-07T20:50:13.574Z,12.80
2022-10-07T20:52:40.218Z,12.80
2022-10-07T20:55:08.832Z,12.90
2022-10-07T20:57:38.019Z,13.00
2022-10-07T21:00:10.372Z,13.00
2022-10-07T21:02:37.009Z,13.00
2022-10-07T21:05:03.795Z,13.00
2022-10-07T21:07:30.473Z,13.00
2022-10-07T21:09:58.199Z,13.00
2022-10-07T21:12:24.812Z,13.00
2022-10-07T21:14:55.072Z,13.00
2022-10-07T21:17:21.975Z,13.00
2022-10-07T21:19:48.952Z,13.00
2022-10-07T21:22:15.563Z,13.00
2022-10-07T21:24:42.236Z,13.00
2022-10-07T21:27:09.134Z,13.40
2022-10-07T21:29:40.422Z,13.00
2022-10-07T21:32:08.376Z,13.30
2022-10-07T21:34:35.090Z,12.90
2022-10-07T21:37:01.829Z,12.90
2022-10-07T21:39:28.572Z,12.80
2022-10-07T21:41:55.288Z,12.80
2022-10-07T21:44:21.966Z,13.70
2022-10-07T21:46:48.682Z,12.80
2022-10-07T21:49:15.913Z,12.80
2022-10-07T21:51:43.042Z,12.80
2022-10-07T21:54:16.439Z,12.90
2022-10-07T21:56:46.090Z,12.90
2022-10-07T21:59:13.429Z,12.90
2022-10-07T22:01:40.396Z,13.50
2022-10-07T22:04:08.054Z,12.90
2022-10-07T22:06:53.420Z,12.90
2022-10-07T22:09:21.040Z,12.90
2022-10-07T22:11:48.415Z,12.90
2022-10-07T22:14:15.133Z,13.00
2022-10-07T22:16:41.798Z,12.90
2022-10-07T22:19:09.214Z,12.90
2022-10-07T22:21:39.997Z,12.90
2022-10-07T22:24:08.173Z,12.80
2022-10-07T22:26:42.547Z,12.80
2022-10-07T22:29:10.003Z,12.90
2022-10-07T22:31:37.100Z,12.90
2022-10-07T22:34:04.071Z,13.00
2022-10-07T22:36:30.797Z,13.00
2022-10-07T22:38:58.991Z,13.00
2022-10-07T22:41:26.356Z,13.00
2022-10-07T22:43:53.456Z,13.00
2022-10-07T22:46:24.232Z,13.00
2022-10-07T22:48:51.575Z,13.50
2022-10-07T22:51:18.247Z,12.90
2022-10-07T22:53:48.335Z,13.00
2022-10-07T22:56:16.501Z,13.00
2022-10-07T22:58:44.017Z,13.90
2022-10-07T23:01:12.277Z,13.30
2022-10-07T23:03:40.103Z,13.30
2022-10-07T23:06:07.327Z,13.00
2022-10-07T23:08:34.599Z,13.00
2022-10-07T23:11:01.869Z,14.20
2022-10-07T23:13:28.454Z,13.60
2022-10-07T23:15:59.948Z,12.90
2022-10-07T23:18:27.333Z,12.80
2022-10-07T23:20:58.018Z,14.10
2022-10-07T23:23:25.373Z,12.80
2022-10-07T23:25:52.157Z,12.80
2022-10-07T23:28:19.467Z,12.80
2022-10-07T23:30:46.491Z,13.80
2022-10-07T23:33:13.637Z,12.80
2022-10-07T23:35:40.850Z,12.90
2022-10-07T23:38:07.818Z,12.90
2022-10-07T23:40:34.583Z,12.90
2022-10-07T23:43:01.218Z,14.50
2022-10-07T23:45:28.700Z,12.90
2022-10-07T23:47:55.374Z,12.90
2022-10-07T23:50:21.913Z,12.90
2022-10-07T23:52:49.099Z,12.90
2022-10-07T23:55:15.993Z,14.10
2022-10-07T23:57:42.835Z,12.90
